sensor_id;sensor_type;location;lat;lon;timestamp;P1;durP1;ratioP1;P2;durP2;ratioP2
9559;SDS011;4818;50.860;4.648;2023-04-25T00:01:30;14.80;;;3.25;;
9559;SDS011;4818;50.860;4.648;2023-04-25T00:03:58;14.35;;;3.58;;
9559;SDS011;4818;50.860;4.648;2023-04-25T00:06:26;13.63;;;3.40;;
9559;SDS011;4818;50.860;4.648;2023-04-25T00:08:52;10.80;;;3.40;;
9559;SDS011;4818;50.860;4.648;2023-04-25T00:11:19;10.80;;;4.25;;
9559;SDS011;4818;50.860;4.648;2023-04-25T00:13:45;17.20;;;3.10;;
9559;SDS011;4818;50.860;4.648;2023-04-25T00:16:11;16.08;;;4.07;;
9559;SDS011;4818;50.860;4.648;2023-04-25T00:18:41;13.27;;;2.90;;
9559;SDS011;4818;50.860;4.648;2023-04-25T00:21:07;11.18;;;2.80;;
9559;SDS011;4818;50.860;4.648;2023-04-25T00:23:34;12.95;;;3.53;;
9559;SDS011;4818;50.860;4.648;2023-04-25T00:28:30;12.95;;;3.17;;
9559;SDS011;4818;50.860;4.648;2023-04-25T00:30:56;19.35;;;3.75;;
9559;SDS011;4818;50.860;4.648;2023-04-25T00:33:22;18.25;;;4.22;;
9559;SDS011;4818;50.860;4.648;2023-04-25T00:35:48;12.50;;;3.80;;
9559;SDS011;4818;50.860;4.648;2023-04-25T00:38:15;23.52;;;3.78;;
9559;SDS011;4818;50.860;4.648;2023-04-25T00:40:41;11.30;;;2.50;;
9559;SDS011;4818;50.860;4.648;2023-04-25T00:43:08;14.00;;;3.30;;
9559;SDS011;4818;50.860;4.648;2023-04-25T00:45:34;20.88;;;4.22;;
9559;SDS011;4818;50.860;4.648;2023-04-25T00:48:04;18.50;;;3.70;;
9559;SDS011;4818;50.860;4.648;2023-04-25T00:50:30;11.43;;;3.22;;
9559;SDS011;4818;50.860;4.648;2023-04-25T00:52:56;8.93;;;3.60;;
9559;SDS011;4818;50.860;4.648;2023-04-25T00:55:23;20.48;;;3.20;;
9559;SDS011;4818;50.860;4.648;2023-04-25T00:57:51;30.80;;;5.20;;
9559;SDS011;4818;50.860;4.648;2023-04-25T01:00:18;11.57;;;3.63;;
9559;SDS011;4818;50.860;4.648;2023-04-25T01:02:44;13.00;;;4.00;;
9559;SDS011;4818;50.860;4.648;2023-04-25T01:05:11;20.77;;;3.97;;
9559;SDS011;4818;50.860;4.648;2023-04-25T01:07:38;16.95;;;4.28;;
9559;SDS011;4818;50.860;4.648;2023-04-25T01:10:05;16.10;;;4.13;;
9559;SDS011;4818;50.860;4.648;2023-04-25T01:12:32;14.25;;;3.72;;
9559;SDS011;4818;50.860;4.648;2023-04-25T01:14:58;15.68;;;4.22;;
9559;SDS011;4818;50.860;4.648;2023-04-25T01:17:24;17.08;;;3.58;;
9559;SDS011;4818;50.860;4.648;2023-04-25T01:19:52;17.73;;;3.42;;
9559;SDS011;4818;50.860;4.648;2023-04-25T01:22:18;17.23;;;3.45;;
9559;SDS011;4818;50.860;4.648;2023-04-25T01:24:46;14.02;;;3.95;;
9559;SDS011;4818;50.860;4.648;2023-04-25T01:27:12;17.83;;;3.45;;
9559;SDS011;4818;50.860;4.648;2023-04-25T01:29:38;11.05;;;3.25;;
9559;SDS011;4818;50.860;4.648;2023-04-25T01:32:05;23.70;;;4.30;;
9559;SDS011;4818;50.860;4.648;2023-04-25T01:34:32;18.10;;;3.92;;
9559;SDS011;4818;50.860;4.648;2023-04-25T01:36:59;17.30;;;3.70;;
9559;SDS011;4818;50.860;4.648;2023-04-25T01:39:28;12.32;;;3.35;;
9559;SDS011;4818;50.860;4.648;2023-04-25T01:41:58;14.15;;;3.70;;
9559;SDS011;4818;50.860;4.648;2023-04-25T01:44:25;16.88;;;4.68;;
9559;SDS011;4818;50.860;4.648;2023-04-25T01:46:51;14.20;;;3.47;;
9559;SDS011;4818;50.860;4.648;2023-04-25T01:49:17;13.85;;;4.85;;
9559;SDS011;4818;50.860;4.648;2023-04-25T01:51:43;18.73;;;3.67;;
9559;SDS011;4818;50.860;4.648;2023-04-25T01:54:10;15.07;;;3.38;;
9559;SDS011;4818;50.860;4.648;2023-04-25T01:56:37;12.88;;;3.72;;
9559;SDS011;4818;50.860;4.648;2023-04-25T01:59:04;24.45;;;4.70;;
9559;SDS011;4818;50.860;4.648;2023-04-25T02:01:30;13.05;;;3.63;;
9559;SDS011;4818;50.860;4.648;2023-04-25T02:03:56;16.20;;;3.50;;
9559;SDS011;4818;50.860;4.648;2023-04-25T02:06:23;22.00;;;3.72;;
9559;SDS011;4818;50.860;4.648;2023-04-25T02:08:49;22.40;;;4.97;;
9559;SDS011;4818;50.860;4.648;2023-04-25T02:11:15;14.45;;;4.00;;
9559;SDS011;4818;50.860;4.648;2023-04-25T02:13:41;25.00;;;4.55;;
9559;SDS011;4818;50.860;4.648;2023-04-25T02:16:07;16.90;;;3.90;;
9559;SDS011;4818;50.860;4.648;2023-04-25T02:18:34;17.45;;;3.83;;
9559;SDS011;4818;50.860;4.648;2023-04-25T02:21:02;13.20;;;3.72;;
9559;SDS011;4818;50.860;4.648;2023-04-25T02:23:28;20.58;;;4.57;;
9559;SDS011;4818;50.860;4.648;2023-04-25T02:25:55;18.35;;;4.53;;
9559;SDS011;4818;50.860;4.648;2023-04-25T02:28:23;10.45;;;3.75;;
9559;SDS011;4818;50.860;4.648;2023-04-25T02:30:49;15.32;;;4.38;;
9559;SDS011;4818;50.860;4.648;2023-04-25T02:33:16;16.58;;;4.18;;
9559;SDS011;4818;50.860;4.648;2023-04-25T02:35:42;20.55;;;4.03;;
9559;SDS011;4818;50.860;4.648;2023-04-25T02:38:08;16.50;;;4.75;;
9559;SDS011;4818;50.860;4.648;2023-04-25T02:40:34;19.85;;;5.70;;
9559;SDS011;4818;50.860;4.648;2023-04-25T02:43:01;19.33;;;4.82;;
9559;SDS011;4818;50.860;4.648;2023-04-25T02:45:27;18.75;;;4.65;;
9559;SDS011;4818;50.860;4.648;2023-04-25T02:47:53;21.65;;;4.80;;
9559;SDS011;4818;50.860;4.648;2023-04-25T02:50:19;31.30;;;4.80;;
9559;SDS011;4818;50.860;4.648;2023-04-25T02:52:45;21.08;;;5.03;;
9559;SDS011;4818;50.860;4.648;2023-04-25T02:55:12;17.70;;;4.75;;
9559;SDS011;4818;50.860;4.648;2023-04-25T02:57:38;24.23;;;5.10;;
9559;SDS011;4818;50.860;4.648;2023-04-25T03:00:05;20.30;;;5.55;;
9559;SDS011;4818;50.860;4.648;2023-04-25T03:02:32;22.27;;;5.80;;
9559;SDS011;4818;50.860;4.648;2023-04-25T03:04:58;17.17;;;4.80;;
9559;SDS011;4818;50.860;4.648;2023-04-25T03:07:24;23.98;;;5.18;;
9559;SDS011;4818;50.860;4.648;2023-04-25T03:09:51;20.55;;;4.72;;
9559;SDS011;4818;50.860;4.648;2023-04-25T03:12:17;34.80;;;6.43;;
9559;SDS011;4818;50.860;4.648;2023-04-25T03:14:43;22.08;;;5.70;;
9559;SDS011;4818;50.860;4.648;2023-04-25T03:17:09;27.23;;;4.70;;
9559;SDS011;4818;50.860;4.648;2023-04-25T03:19:36;26.38;;;5.38;;
9559;SDS011;4818;50.860;4.648;2023-04-25T03:22:02;24.30;;;5.18;;
9559;SDS011;4818;50.860;4.648;2023-04-25T03:24:28;22.55;;;5.18;;
9559;SDS011;4818;50.860;4.648;2023-04-25T03:26:55;17.13;;;4.55;;
9559;SDS011;4818;50.860;4.648;2023-04-25T03:29:21;18.20;;;4.47;;
9559;SDS011;4818;50.860;4.648;2023-04-25T03:31:49;19.60;;;4.25;;
9559;SDS011;4818;50.860;4.648;2023-04-25T03:34:16;20.52;;;5.63;;
9559;SDS011;4818;50.860;4.648;2023-04-25T03:36:42;21.05;;;4.72;;
9559;SDS011;4818;50.860;4.648;2023-04-25T03:39:08;17.38;;;3.92;;
9559;SDS011;4818;50.860;4.648;2023-04-25T03:41:34;16.25;;;5.18;;
9559;SDS011;4818;50.860;4.648;2023-04-25T03:44:01;21.02;;;4.60;;
9559;SDS011;4818;50.860;4.648;2023-04-25T03:46:27;12.32;;;3.90;;
9559;SDS011;4818;50.860;4.648;2023-04-25T03:48:53;23.90;;;4.22;;
9559;SDS011;4818;50.860;4.648;2023-04-25T03:51:19;27.38;;;4.35;;
9559;SDS011;4818;50.860;4.648;2023-04-25T03:53:47;16.45;;;3.50;;
9559;SDS011;4818;50.860;4.648;2023-04-25T03:56:14;21.63;;;3.40;;
9559;SDS011;4818;50.860;4.648;2023-04-25T03:58:40;25.60;;;4.07;;
9559;SDS011;4818;50.860;4.648;2023-04-25T04:01:06;11.95;;;3.33;;
9559;SDS011;4818;50.860;4.648;2023-04-25T04:03:33;15.07;;;2.92;;
9559;SDS011;4818;50.860;4.648;2023-04-25T04:06:01;21.90;;;2.80;;
9559;SDS011;4818;50.860;4.648;2023-04-25T04:08:29;12.73;;;2.63;;
9559;SDS011;4818;50.860;4.648;2023-04-25T04:10:55;12.35;;;2.38;;
9559;SDS011;4818;50.860;4.648;2023-04-25T04:13:21;15.10;;;2.97;;
9559;SDS011;4818;50.860;4.648;2023-04-25T04:15:48;12.93;;;2.45;;
9559;SDS011;4818;50.860;4.648;2023-04-25T04:18:14;17.13;;;2.92;;
9559;SDS011;4818;50.860;4.648;2023-04-25T04:20:40;10.32;;;2.95;;
9559;SDS011;4818;50.860;4.648;2023-04-25T04:23:07;15.00;;;2.33;;
9559;SDS011;4818;50.860;4.648;2023-04-25T04:25:33;13.60;;;3.08;;
9559;SDS011;4818;50.860;4.648;2023-04-25T04:27:59;14.43;;;2.92;;
9559;SDS011;4818;50.860;4.648;2023-04-25T04:30:26;14.13;;;2.30;;
9559;SDS011;4818;50.860;4.648;2023-04-25T04:32:56;10.90;;;2.80;;
9559;SDS011;4818;50.860;4.648;2023-04-25T04:35:22;22.65;;;2.45;;
9559;SDS011;4818;50.860;4.648;2023-04-25T04:37:49;17.58;;;2.70;;
9559;SDS011;4818;50.860;4.648;2023-04-25T04:40:15;9.95;;;2.25;;
9559;SDS011;4818;50.860;4.648;2023-04-25T04:42:42;17.15;;;3.72;;
9559;SDS011;4818;50.860;4.648;2023-04-25T04:45:10;17.77;;;3.47;;
9559;SDS011;4818;50.860;4.648;2023-04-25T04:47:37;19.30;;;3.72;;
9559;SDS011;4818;50.860;4.648;2023-04-25T04:50:05;18.02;;;3.45;;
9559;SDS011;4818;50.860;4.648;2023-04-25T04:52:33;9.18;;;2.10;;
9559;SDS011;4818;50.860;4.648;2023-04-25T04:55:00;16.35;;;3.03;;
9559;SDS011;4818;50.860;4.648;2023-04-25T04:57:27;13.73;;;3.08;;
9559;SDS011;4818;50.860;4.648;2023-04-25T04:59:53;11.70;;;3.10;;
9559;SDS011;4818;50.860;4.648;2023-04-25T05:02:20;15.68;;;3.65;;
9559;SDS011;4818;50.860;4.648;2023-04-25T05:04:46;13.02;;;3.35;;
9559;SDS011;4818;50.860;4.648;2023-04-25T05:07:12;18.00;;;3.00;;
9559;SDS011;4818;50.860;4.648;2023-04-25T05:09:38;10.05;;;2.33;;
9559;SDS011;4818;50.860;4.648;2023-04-25T05:12:05;9.75;;;2.58;;
9559;SDS011;4818;50.860;4.648;2023-04-25T05:14:31;15.52;;;2.70;;
9559;SDS011;4818;50.860;4.648;2023-04-25T05:16:57;26.17;;;3.85;;
9559;SDS011;4818;50.860;4.648;2023-04-25T05:19:24;21.88;;;4.25;;
9559;SDS011;4818;50.860;4.648;2023-04-25T05:21:50;14.00;;;4.18;;
9559;SDS011;4818;50.860;4.648;2023-04-25T05:24:17;16.95;;;4.32;;
9559;SDS011;4818;50.860;4.648;2023-04-25T05:26:43;16.48;;;4.03;;
9559;SDS011;4818;50.860;4.648;2023-04-25T05:29:09;17.60;;;5.15;;
9559;SDS011;4818;50.860;4.648;2023-04-25T05:31:35;19.58;;;4.75;;
9559;SDS011;4818;50.860;4.648;2023-04-25T05:34:04;19.27;;;5.13;;
9559;SDS011;4818;50.860;4.648;2023-04-25T05:36:31;12.60;;;4.25;;
9559;SDS011;4818;50.860;4.648;2023-04-25T05:38:57;13.70;;;4.00;;
9559;SDS011;4818;50.860;4.648;2023-04-25T05:41:24;20.02;;;5.05;;
9559;SDS011;4818;50.860;4.648;2023-04-25T05:43:50;17.35;;;4.75;;
9559;SDS011;4818;50.860;4.648;2023-04-25T05:46:16;14.48;;;4.50;;
9559;SDS011;4818;50.860;4.648;2023-04-25T05:48:42;12.57;;;5.05;;
9559;SDS011;4818;50.860;4.648;2023-04-25T05:51:09;18.15;;;4.45;;
9559;SDS011;4818;50.860;4.648;2023-04-25T05:53:35;13.73;;;4.25;;
9559;SDS011;4818;50.860;4.648;2023-04-25T05:56:01;15.63;;;4.28;;
9559;SDS011;4818;50.860;4.648;2023-04-25T05:58:28;14.43;;;4.70;;
9559;SDS011;4818;50.860;4.648;2023-04-25T06:00:54;15.68;;;3.38;;
9559;SDS011;4818;50.860;4.648;2023-04-25T06:03:20;19.05;;;2.95;;
9559;SDS011;4818;50.860;4.648;2023-04-25T06:05:46;27.02;;;4.53;;
9559;SDS011;4818;50.860;4.648;2023-04-25T06:08:12;17.58;;;3.47;;
9559;SDS011;4818;50.860;4.648;2023-04-25T06:10:39;20.95;;;4.20;;
9559;SDS011;4818;50.860;4.648;2023-04-25T06:13:05;15.15;;;4.05;;
9559;SDS011;4818;50.860;4.648;2023-04-25T06:15:31;12.23;;;3.88;;
9559;SDS011;4818;50.860;4.648;2023-04-25T06:17:58;25.77;;;4.32;;
9559;SDS011;4818;50.860;4.648;2023-04-25T06:20:25;18.98;;;4.28;;
9559;SDS011;4818;50.860;4.648;2023-04-25T06:22:52;18.90;;;4.75;;
9559;SDS011;4818;50.860;4.648;2023-04-25T06:25:19;23.75;;;6.32;;
9559;SDS011;4818;50.860;4.648;2023-04-25T06:27:45;13.90;;;3.28;;
9559;SDS011;4818;50.860;4.648;2023-04-25T06:30:11;15.32;;;3.50;;
9559;SDS011;4818;50.860;4.648;2023-04-25T06:32:38;12.70;;;3.40;;
9559;SDS011;4818;50.860;4.648;2023-04-25T06:35:04;16.98;;;4.45;;
9559;SDS011;4818;50.860;4.648;2023-04-25T06:37:31;18.67;;;4.28;;
9559;SDS011;4818;50.860;4.648;2023-04-25T06:39:57;16.92;;;4.35;;
9559;SDS011;4818;50.860;4.648;2023-04-25T06:42:23;15.70;;;4.05;;
9559;SDS011;4818;50.860;4.648;2023-04-25T06:44:49;15.93;;;3.53;;
9559;SDS011;4818;50.860;4.648;2023-04-25T06:47:16;21.60;;;3.92;;
9559;SDS011;4818;50.860;4.648;2023-04-25T06:49:42;16.58;;;3.85;;
9559;SDS011;4818;50.860;4.648;2023-04-25T06:52:08;14.45;;;4.30;;
9559;SDS011;4818;50.860;4.648;2023-04-25T06:54:35;16.90;;;4.15;;
9559;SDS011;4818;50.860;4.648;2023-04-25T06:57:02;12.23;;;3.95;;
9559;SDS011;4818;50.860;4.648;2023-04-25T06:59:28;18.33;;;3.40;;
9559;SDS011;4818;50.860;4.648;2023-04-25T07:01:54;25.08;;;4.63;;
9559;SDS011;4818;50.860;4.648;2023-04-25T07:04:20;21.88;;;4.65;;
9559;SDS011;4818;50.860;4.648;2023-04-25T07:06:47;15.60;;;3.47;;
9559;SDS011;4818;50.860;4.648;2023-04-25T07:09:14;16.02;;;4.05;;
9559;SDS011;4818;50.860;4.648;2023-04-25T07:11:40;17.30;;;3.08;;
9559;SDS011;4818;50.860;4.648;2023-04-25T07:14:07;18.85;;;3.65;;
9559;SDS011;4818;50.860;4.648;2023-04-25T07:16:33;14.57;;;3.35;;
9559;SDS011;4818;50.860;4.648;2023-04-25T07:18:59;12.90;;;3.22;;
9559;SDS011;4818;50.860;4.648;2023-04-25T07:21:25;16.35;;;3.28;;
9559;SDS011;4818;50.860;4.648;2023-04-25T07:23:51;19.88;;;4.70;;
9559;SDS011;4818;50.860;4.648;2023-04-25T07:26:18;10.25;;;4.00;;
9559;SDS011;4818;50.860;4.648;2023-04-25T07:28:44;13.15;;;3.13;;
9559;SDS011;4818;50.860;4.648;2023-04-25T07:31:10;12.82;;;2.92;;
9559;SDS011;4818;50.860;4.648;2023-04-25T07:33:37;9.65;;;2.97;;
9559;SDS011;4818;50.860;4.648;2023-04-25T07:36:07;13.88;;;2.85;;
9559;SDS011;4818;50.860;4.648;2023-04-25T07:38:33;51.45;;;26.17;;
9559;SDS011;4818;50.860;4.648;2023-04-25T07:40:59;18.35;;;5.03;;
9559;SDS011;4818;50.860;4.648;2023-04-25T07:43:26;18.85;;;5.22;;
9559;SDS011;4818;50.860;4.648;2023-04-25T07:45:52;20.63;;;5.00;;
9559;SDS011;4818;50.860;4.648;2023-04-25T07:48:18;28.60;;;5.25;;
9559;SDS011;4818;50.860;4.648;2023-04-25T07:50:45;21.38;;;4.07;;
9559;SDS011;4818;50.860;4.648;2023-04-25T07:53:12;26.25;;;5.00;;
9559;SDS011;4818;50.860;4.648;2023-04-25T07:55:38;18.88;;;5.22;;
9559;SDS011;4818;50.860;4.648;2023-04-25T07:58:08;26.58;;;8.90;;
9559;SDS011;4818;50.860;4.648;2023-04-25T08:00:35;10.70;;;3.30;;
9559;SDS011;4818;50.860;4.648;2023-04-25T08:03:01;18.35;;;4.70;;
9559;SDS011;4818;50.860;4.648;2023-04-25T08:05:28;15.68;;;4.75;;
9559;SDS011;4818;50.860;4.648;2023-04-25T08:07:55;17.40;;;4.20;;
9559;SDS011;4818;50.860;4.648;2023-04-25T08:10:22;20.25;;;3.70;;
9559;SDS011;4818;50.860;4.648;2023-04-25T08:12:48;14.75;;;3.35;;
9559;SDS011;4818;50.860;4.648;2023-04-25T08:15:14;16.73;;;3.50;;
9559;SDS011;4818;50.860;4.648;2023-04-25T08:17:41;17.10;;;3.55;;
9559;SDS011;4818;50.860;4.648;2023-04-25T08:20:09;8.98;;;3.10;;
9559;SDS011;4818;50.860;4.648;2023-04-25T08:22:36;17.90;;;4.38;;
9559;SDS011;4818;50.860;4.648;2023-04-25T08:25:02;31.17;;;5.50;;
9559;SDS011;4818;50.860;4.648;2023-04-25T08:27:28;10.15;;;2.90;;
9559;SDS011;4818;50.860;4.648;2023-04-25T08:29:55;9.30;;;3.78;;
9559;SDS011;4818;50.860;4.648;2023-04-25T08:32:21;14.35;;;3.97;;
9559;SDS011;4818;50.860;4.648;2023-04-25T08:34:47;14.63;;;3.33;;
9559;SDS011;4818;50.860;4.648;2023-04-25T08:37:21;20.90;;;3.50;;
9559;SDS011;4818;50.860;4.648;2023-04-25T08:39:48;13.80;;;2.75;;
9559;SDS011;4818;50.860;4.648;2023-04-25T08:42:17;17.30;;;2.65;;
9559;SDS011;4818;50.860;4.648;2023-04-25T08:44:44;9.18;;;1.67;;
9559;SDS011;4818;50.860;4.648;2023-04-25T08:47:11;13.93;;;1.55;;
9559;SDS011;4818;50.860;4.648;2023-04-25T08:49:38;15.35;;;1.10;;
9559;SDS011;4818;50.860;4.648;2023-04-25T08:52:05;9.95;;;1.33;;
9559;SDS011;4818;50.860;4.648;2023-04-25T08:54:34;7.50;;;1.33;;
9559;SDS011;4818;50.860;4.648;2023-04-25T08:57:02;5.55;;;1.00;;
9559;SDS011;4818;50.860;4.648;2023-04-25T08:59:29;8.55;;;1.15;;
9559;SDS011;4818;50.860;4.648;2023-04-25T09:04:29;12.30;;;1.85;;
9559;SDS011;4818;50.860;4.648;2023-04-25T09:06:55;12.30;;;1.42;;
9559;SDS011;4818;50.860;4.648;2023-04-25T09:09:22;10.57;;;1.45;;
9559;SDS011;4818;50.860;4.648;2023-04-25T09:11:51;9.60;;;1.15;;
9559;SDS011;4818;50.860;4.648;2023-04-25T09:14:23;7.93;;;1.10;;
9559;SDS011;4818;50.860;4.648;2023-04-25T09:19:23;12.60;;;0.70;;
9559;SDS011;4818;50.860;4.648;2023-04-25T09:21:50;12.65;;;1.55;;
9559;SDS011;4818;50.860;4.648;2023-04-25T09:24:19;6.82;;;0.65;;
9559;SDS011;4818;50.860;4.648;2023-04-25T09:26:55;7.27;;;0.60;;
9559;SDS011;4818;50.860;4.648;2023-04-25T09:29:27;7.63;;;1.50;;
9559;SDS011;4818;50.860;4.648;2023-04-25T09:34:41;6.57;;;0.80;;
9559;SDS011;4818;50.860;4.648;2023-04-25T09:37:09;6.63;;;0.75;;
9559;SDS011;4818;50.860;4.648;2023-04-25T09:39:39;7.13;;;0.82;;
9559;SDS011;4818;50.860;4.648;2023-04-25T09:42:07;7.60;;;0.68;;
9559;SDS011;4818;50.860;4.648;2023-04-25T09:44:37;6.60;;;0.90;;
9559;SDS011;4818;50.860;4.648;2023-04-25T09:47:15;13.57;;;1.65;;
9559;SDS011;4818;50.860;4.648;2023-04-25T09:49:46;5.57;;;1.20;;
9559;SDS011;4818;50.860;4.648;2023-04-25T09:52:22;7.55;;;1.40;;
9559;SDS011;4818;50.860;4.648;2023-04-25T09:54:50;8.88;;;0.90;;
9559;SDS011;4818;50.860;4.648;2023-04-25T09:57:17;10.30;;;1.63;;
9559;SDS011;4818;50.860;4.648;2023-04-25T09:59:48;9.77;;;1.15;;
9559;SDS011;4818;50.860;4.648;2023-04-25T10:02:15;7.32;;;0.85;;
9559;SDS011;4818;50.860;4.648;2023-04-25T10:04:42;11.18;;;0.98;;
9559;SDS011;4818;50.860;4.648;2023-04-25T10:07:10;7.88;;;0.70;;
9559;SDS011;4818;50.860;4.648;2023-04-25T10:09:37;9.98;;;1.45;;
9559;SDS011;4818;50.860;4.648;2023-04-25T10:12:05;6.95;;;0.40;;
9559;SDS011;4818;50.860;4.648;2023-04-25T10:14:31;4.82;;;0.65;;
9559;SDS011;4818;50.860;4.648;2023-04-25T10:16:58;7.05;;;0.68;;
9559;SDS011;4818;50.860;4.648;2023-04-25T10:19:25;4.82;;;1.10;;
9559;SDS011;4818;50.860;4.648;2023-04-25T10:21:52;7.53;;;0.80;;
9559;SDS011;4818;50.860;4.648;2023-04-25T10:24:20;9.13;;;0.60;;
9559;SDS011;4818;50.860;4.648;2023-04-25T10:26:47;6.78;;;0.40;;
9559;SDS011;4818;50.860;4.648;2023-04-25T10:29:14;6.50;;;0.85;;
9559;SDS011;4818;50.860;4.648;2023-04-25T10:31:47;4.85;;;0.60;;
9559;SDS011;4818;50.860;4.648;2023-04-25T10:34:13;3.50;;;0.50;;
9559;SDS011;4818;50.860;4.648;2023-04-25T10:36:39;7.95;;;0.52;;
9559;SDS011;4818;50.860;4.648;2023-04-25T10:39:08;5.63;;;0.85;;
9559;SDS011;4818;50.860;4.648;2023-04-25T10:41:47;5.20;;;0.50;;
9559;SDS011;4818;50.860;4.648;2023-04-25T10:44:14;4.07;;;0.40;;
9559;SDS011;4818;50.860;4.648;2023-04-25T10:46:40;5.68;;;0.50;;
9559;SDS011;4818;50.860;4.648;2023-04-25T10:49:07;2.58;;;0.45;;
9559;SDS011;4818;50.860;4.648;2023-04-25T10:51:36;4.82;;;0.65;;
9559;SDS011;4818;50.860;4.648;2023-04-25T10:54:07;4.20;;;0.70;;
9559;SDS011;4818;50.860;4.648;2023-04-25T10:56:37;4.40;;;0.22;;
9559;SDS011;4818;50.860;4.648;2023-04-25T10:59:05;3.28;;;0.40;;
9559;SDS011;4818;50.860;4.648;2023-04-25T11:02:14;4.32;;;0.30;;
9559;SDS011;4818;50.860;4.648;2023-04-25T11:04:22;4.43;;;0.40;;
9559;SDS011;4818;50.860;4.648;2023-04-25T11:09:18;4.97;;;0.68;;
9559;SDS011;4818;50.860;4.648;2023-04-25T11:11:52;4.03;;;0.40;;
9559;SDS011;4818;50.860;4.648;2023-04-25T11:14:19;4.68;;;0.40;;
9559;SDS011;4818;50.860;4.648;2023-04-25T11:16:47;4.47;;;0.60;;
9559;SDS011;4818;50.860;4.648;2023-04-25T11:19:13;2.95;;;0.52;;
9559;SDS011;4818;50.860;4.648;2023-04-25T11:21:39;9.02;;;0.50;;
9559;SDS011;4818;50.860;4.648;2023-04-25T11:24:06;5.88;;;0.60;;
9559;SDS011;4818;50.860;4.648;2023-04-25T11:26:32;3.53;;;0.50;;
9559;SDS011;4818;50.860;4.648;2023-04-25T11:28:58;8.95;;;0.80;;
9559;SDS011;4818;50.860;4.648;2023-04-25T11:31:28;7.18;;;1.20;;
9559;SDS011;4818;50.860;4.648;2023-04-25T11:33:58;5.93;;;1.45;;
9559;SDS011;4818;50.860;4.648;2023-04-25T11:36:25;4.10;;;0.60;;
9559;SDS011;4818;50.860;4.648;2023-04-25T11:38:52;6.93;;;0.75;;
9559;SDS011;4818;50.860;4.648;2023-04-25T11:41:21;4.60;;;0.82;;
9559;SDS011;4818;50.860;4.648;2023-04-25T11:43:48;5.32;;;0.40;;
9559;SDS011;4818;50.860;4.648;2023-04-25T11:46:16;5.07;;;1.27;;
9559;SDS011;4818;50.860;4.648;2023-04-25T11:48:45;4.25;;;0.65;;
9559;SDS011;4818;50.860;4.648;2023-04-25T11:51:15;5.63;;;0.70;;
9559;SDS011;4818;50.860;4.648;2023-04-25T11:53:42;4.13;;;0.60;;
9559;SDS011;4818;50.860;4.648;2023-04-25T11:56:12;6.63;;;0.55;;
9559;SDS011;4818;50.860;4.648;2023-04-25T11:58:57;9.68;;;0.68;;
9559;SDS011;4818;50.860;4.648;2023-04-25T12:01:34;7.28;;;0.57;;
9559;SDS011;4818;50.860;4.648;2023-04-25T12:06:42;5.70;;;0.60;;
9559;SDS011;4818;50.860;4.648;2023-04-25T12:09:09;7.80;;;0.57;;
9559;SDS011;4818;50.860;4.648;2023-04-25T12:11:43;5.00;;;0.85;;
9559;SDS011;4818;50.860;4.648;2023-04-25T12:14:10;8.35;;;0.70;;
9559;SDS011;4818;50.860;4.648;2023-04-25T12:16:40;5.05;;;0.80;;
9559;SDS011;4818;50.860;4.648;2023-04-25T12:19:07;6.88;;;0.60;;
9559;SDS011;4818;50.860;4.648;2023-04-25T12:21:33;7.07;;;0.85;;
9559;SDS011;4818;50.860;4.648;2023-04-25T12:24:21;7.43;;;0.93;;
9559;SDS011;4818;50.860;4.648;2023-04-25T12:26:50;5.78;;;0.45;;
9559;SDS011;4818;50.860;4.648;2023-04-25T12:29:21;3.70;;;0.50;;
9559;SDS011;4818;50.860;4.648;2023-04-25T12:31:48;4.90;;;0.50;;
9559;SDS011;4818;50.860;4.648;2023-04-25T12:34:15;1.80;;;0.47;;
9559;SDS011;4818;50.860;4.648;2023-04-25T12:36:41;3.95;;;0.38;;
9559;SDS011;4818;50.860;4.648;2023-04-25T12:39:07;3.28;;;0.60;;
9559;SDS011;4818;50.860;4.648;2023-04-25T12:41:34;3.35;;;0.60;;
9559;SDS011;4818;50.860;4.648;2023-04-25T12:44:05;0.80;;;0.10;;
9559;SDS011;4818;50.860;4.648;2023-04-25T12:46:31;3.15;;;0.30;;
9559;SDS011;4818;50.860;4.648;2023-04-25T12:48:58;1.73;;;0.40;;
9559;SDS011;4818;50.860;4.648;2023-04-25T12:51:25;1.88;;;0.28;;
9559;SDS011;4818;50.860;4.648;2023-04-25T12:53:52;5.05;;;0.50;;
9559;SDS011;4818;50.860;4.648;2023-04-25T12:56:19;2.72;;;0.30;;
9559;SDS011;4818;50.860;4.648;2023-04-25T12:58:48;2.20;;;0.20;;
9559;SDS011;4818;50.860;4.648;2023-04-25T13:01:14;4.57;;;0.52;;
9559;SDS011;4818;50.860;4.648;2023-04-25T13:03:41;14.80;;;0.85;;
9559;SDS011;4818;50.860;4.648;2023-04-25T13:06:07;3.45;;;0.35;;
9559;SDS011;4818;50.860;4.648;2023-04-25T13:08:36;1.35;;;0.30;;
9559;SDS011;4818;50.860;4.648;2023-04-25T13:11:03;0.73;;;0.20;;
9559;SDS011;4818;50.860;4.648;2023-04-25T13:13:30;6.20;;;0.40;;
9559;SDS011;4818;50.860;4.648;2023-04-25T13:15:57;1.55;;;0.20;;
9559;SDS011;4818;50.860;4.648;2023-04-25T13:18:23;2.55;;;0.20;;
9559;SDS011;4818;50.860;4.648;2023-04-25T13:20:53;2.30;;;0.20;;
9559;SDS011;4818;50.860;4.648;2023-04-25T13:23:19;5.15;;;0.50;;
9559;SDS011;4818;50.860;4.648;2023-04-25T13:25:45;5.03;;;0.30;;
9559;SDS011;4818;50.860;4.648;2023-04-25T13:28:12;3.63;;;0.30;;
9559;SDS011;4818;50.860;4.648;2023-04-25T13:30:39;3.67;;;0.75;;
9559;SDS011;4818;50.860;4.648;2023-04-25T13:33:05;4.50;;;0.60;;
9559;SDS011;4818;50.860;4.648;2023-04-25T13:35:32;4.63;;;0.47;;
9559;SDS011;4818;50.860;4.648;2023-04-25T13:37:59;3.53;;;0.80;;
9559;SDS011;4818;50.860;4.648;2023-04-25T13:40:25;5.00;;;0.30;;
9559;SDS011;4818;50.860;4.648;2023-04-25T13:42:53;3.88;;;0.40;;
9559;SDS011;4818;50.860;4.648;2023-04-25T13:45:19;2.38;;;0.40;;
9559;SDS011;4818;50.860;4.648;2023-04-25T13:47:46;3.85;;;0.30;;
9559;SDS011;4818;50.860;4.648;2023-04-25T13:50:12;3.40;;;0.40;;
9559;SDS011;4818;50.860;4.648;2023-04-25T13:52:39;2.83;;;0.30;;
9559;SDS011;4818;50.860;4.648;2023-04-25T13:55:06;4.63;;;0.40;;
9559;SDS011;4818;50.860;4.648;2023-04-25T13:57:33;6.65;;;0.28;;
9559;SDS011;4818;50.860;4.648;2023-04-25T14:00:00;1.67;;;0.20;;
9559;SDS011;4818;50.860;4.648;2023-04-25T14:02:31;3.22;;;0.40;;
9559;SDS011;4818;50.860;4.648;2023-04-25T14:05:00;3.70;;;0.40;;
9559;SDS011;4818;50.860;4.648;2023-04-25T14:07:26;1.98;;;0.43;;
9559;SDS011;4818;50.860;4.648;2023-04-25T14:09:55;7.33;;;0.30;;
9559;SDS011;4818;50.860;4.648;2023-04-25T14:12:22;1.52;;;0.38;;
9559;SDS011;4818;50.860;4.648;2023-04-25T14:14:49;3.05;;;0.45;;
9559;SDS011;4818;50.860;4.648;2023-04-25T14:17:15;2.78;;;0.20;;
9559;SDS011;4818;50.860;4.648;2023-04-25T14:19:41;8.82;;;0.55;;
9559;SDS011;4818;50.860;4.648;2023-04-25T14:22:15;7.07;;;0.52;;
9559;SDS011;4818;50.860;4.648;2023-04-25T14:24:41;6.22;;;0.30;;
9559;SDS011;4818;50.860;4.648;2023-04-25T14:27:07;5.07;;;0.22;;
9559;SDS011;4818;50.860;4.648;2023-04-25T14:29:36;3.78;;;0.65;;
9559;SDS011;4818;50.860;4.648;2023-04-25T14:32:05;4.23;;;0.40;;
9559;SDS011;4818;50.860;4.648;2023-04-25T14:34:34;2.60;;;0.20;;
9559;SDS011;4818;50.860;4.648;2023-04-25T14:37:01;2.20;;;0.30;;
9559;SDS011;4818;50.860;4.648;2023-04-25T14:39:30;4.47;;;0.30;;
9559;SDS011;4818;50.860;4.648;2023-04-25T14:41:56;6.43;;;0.77;;
9559;SDS011;4818;50.860;4.648;2023-04-25T14:44:22;6.45;;;0.20;;
9559;SDS011;4818;50.860;4.648;2023-04-25T14:46:49;52.03;;;2.47;;
9559;SDS011;4818;50.860;4.648;2023-04-25T14:49:16;7.50;;;1.15;;
9559;SDS011;4818;50.860;4.648;2023-04-25T14:51:48;26.77;;;1.80;;
9559;SDS011;4818;50.860;4.648;2023-04-25T14:54:15;2.83;;;0.30;;
9559;SDS011;4818;50.860;4.648;2023-04-25T14:56:41;1.75;;;0.20;;
9559;SDS011;4818;50.860;4.648;2023-04-25T14:59:08;2.67;;;0.88;;
9559;SDS011;4818;50.860;4.648;2023-04-25T15:01:34;7.28;;;0.45;;
9559;SDS011;4818;50.860;4.648;2023-04-25T15:04:01;5.72;;;0.60;;
9559;SDS011;4818;50.860;4.648;2023-04-25T15:06:28;6.75;;;0.82;;
9559;SDS011;4818;50.860;4.648;2023-04-25T15:08:55;5.07;;;0.40;;
9559;SDS011;4818;50.860;4.648;2023-04-25T15:11:22;4.55;;;0.35;;
9559;SDS011;4818;50.860;4.648;2023-04-25T15:13:48;3.65;;;0.20;;
9559;SDS011;4818;50.860;4.648;2023-04-25T15:16:14;2.17;;;0.38;;
9559;SDS011;4818;50.860;4.648;2023-04-25T15:18:40;1.92;;;0.40;;
9559;SDS011;4818;50.860;4.648;2023-04-25T15:21:06;1.05;;;0.20;;
9559;SDS011;4818;50.860;4.648;2023-04-25T15:23:33;5.68;;;0.20;;